aviador You're here:

RODN Decoded Metar

KADENA in JAPAN
Report Time2018-01-18 12:56:00
UTC Time2018-01-18 13:59:11
Flight Rules vfr VFR
Wind050° at 09 kt
W.Decomp.*RWY 05: 9.0 kt HW 0.6 kt RCW
W.Rank050° ranks 1
Current wind is above 050° avg. (7.1)
Visibility9999 m
Phenomena:N/A
Clouds:Overcast 046 Hf
Expected CloudBase > 1,200 ft AGL from Temp-Dew spread
Ceiling4,600 ft
Temp18°C (ISA +3)
Dew Point15°C (83% RH)
AAT16.4°C
QNH1020 hPa
Density Alt525 ft
Elevation148 ft
Report Wrong Elevation
Raw Report
RODN 181256Z AUTO 05009KT 10SM OVC046 18/15 A3011 RMK AO2 SLP203
T01830150=

Extra information for RODN:More info

Metar Taf Metar & Taf Last 4 Metars F.Rules Stats Wind Profile Meteogram Temp Stats Airport Information Weather charts Add Link Nearby VenuesMetar ALERT Operation Metar Decoded Social comments